sensor_id;sensor_type;location;lat;lon;timestamp;temperature;humidity
15357;DHT22;7778;48.792;9.260;2023-04-16T00:02:14;8.00;99.90
15357;DHT22;7778;48.792;9.260;2023-04-16T00:05:00;7.90;99.90
15357;DHT22;7778;48.792;9.260;2023-04-16T00:07:46;8.00;99.90
15357;DHT22;7778;48.792;9.260;2023-04-16T00:10:34;8.00;99.90
15357;DHT22;7778;48.792;9.260;2023-04-16T00:13:22;7.80;99.90
15357;DHT22;7778;48.792;9.260;2023-04-16T00:16:08;7.90;99.90
15357;DHT22;7778;48.792;9.260;2023-04-16T00:18:54;7.80;99.90
15357;DHT22;7778;48.792;9.260;2023-04-16T00:21:40;7.80;99.90
15357;DHT22;7778;48.792;9.260;2023-04-16T00:24:25;7.90;99.90
15357;DHT22;7778;48.792;9.260;2023-04-16T00:27:11;7.90;99.90
15357;DHT22;7778;48.792;9.260;2023-04-16T00:29:58;7.90;99.90
15357;DHT22;7778;48.792;9.260;2023-04-16T00:32:44;7.80;99.90
15357;DHT22;7778;48.792;9.260;2023-04-16T00:35:29;7.90;99.90
15357;DHT22;7778;48.792;9.260;2023-04-16T00:38:15;7.90;99.90
15357;DHT22;7778;48.792;9.260;2023-04-16T00:41:01;7.80;99.90
15357;DHT22;7778;48.792;9.260;2023-04-16T00:43:46;7.80;99.90
15357;DHT22;7778;48.792;9.260;2023-04-16T00:46:33;7.90;99.90
15357;DHT22;7778;48.792;9.260;2023-04-16T00:49:20;7.90;99.90
15357;DHT22;7778;48.792;9.260;2023-04-16T00:52:05;7.90;99.90
15357;DHT22;7778;48.792;9.260;2023-04-16T00:54:51;7.90;99.90
15357;DHT22;7778;48.792;9.260;2023-04-16T00:57:38;7.80;99.90
15357;DHT22;7778;48.792;9.260;2023-04-16T01:00:23;8.00;99.90
15357;DHT22;7778;48.792;9.260;2023-04-16T01:03:11;7.90;99.90
15357;DHT22;7778;48.792;9.260;2023-04-16T01:05:56;7.80;99.90
15357;DHT22;7778;48.792;9.260;2023-04-16T01:08:42;7.80;99.90
15357;DHT22;7778;48.792;9.260;2023-04-16T01:11:29;7.70;99.90
15357;DHT22;7778;48.792;9.260;2023-04-16T01:14:14;7.80;99.90
15357;DHT22;7778;48.792;9.260;2023-04-16T01:17:00;7.90;99.90
15357;DHT22;7778;48.792;9.260;2023-04-16T01:19:47;7.80;99.90
15357;DHT22;7778;48.792;9.260;2023-04-16T01:22:34;7.70;99.90
15357;DHT22;7778;48.792;9.260;2023-04-16T01:25:19;7.70;99.90
15357;DHT22;7778;48.792;9.260;2023-04-16T01:28:05;7.80;99.90
15357;DHT22;7778;48.792;9.260;2023-04-16T01:30:51;7.80;99.90
15357;DHT22;7778;48.792;9.260;2023-04-16T01:33:37;7.70;99.90
15357;DHT22;7778;48.792;9.260;2023-04-16T01:36:23;7.80;99.90
15357;DHT22;7778;48.792;9.260;2023-04-16T01:39:11;7.90;99.90
15357;DHT22;7778;48.792;9.260;2023-04-16T01:41:59;7.80;99.90
15357;DHT22;7778;48.792;9.260;2023-04-16T01:44:46;7.60;99.90
15357;DHT22;7778;48.792;9.260;2023-04-16T01:47:32;7.90;99.90
15357;DHT22;7778;48.792;9.260;2023-04-16T01:50:18;7.90;99.90
15357;DHT22;7778;48.792;9.260;2023-04-16T01:53:03;7.90;99.90
15357;DHT22;7778;48.792;9.260;2023-04-16T01:55:50;7.90;99.90
15357;DHT22;7778;48.792;9.260;2023-04-16T01:58:36;7.90;99.90
15357;DHT22;7778;48.792;9.260;2023-04-16T02:01:21;7.80;99.90
15357;DHT22;7778;48.792;9.260;2023-04-16T02:04:08;7.80;99.90
15357;DHT22;7778;48.792;9.260;2023-04-16T02:06:53;7.80;99.90
15357;DHT22;7778;48.792;9.260;2023-04-16T02:09:40;7.80;99.90
15357;DHT22;7778;48.792;9.260;2023-04-16T02:12:27;7.90;99.90
15357;DHT22;7778;48.792;9.260;2023-04-16T02:15:12;8.10;99.90
15357;DHT22;7778;48.792;9.260;2023-04-16T02:17:59;7.90;99.90
15357;DHT22;7778;48.792;9.260;2023-04-16T02:20:46;7.90;99.90
15357;DHT22;7778;48.792;9.260;2023-04-16T02:23:32;7.80;99.90
15357;DHT22;7778;48.792;9.260;2023-04-16T02:26:18;7.80;99.90
15357;DHT22;7778;48.792;9.260;2023-04-16T02:29:05;7.80;99.90
15357;DHT22;7778;48.792;9.260;2023-04-16T02:31:51;7.90;99.90
15357;DHT22;7778;48.792;9.260;2023-04-16T02:34:36;8.10;99.90
15357;DHT22;7778;48.792;9.260;2023-04-16T02:37:23;7.90;99.90
15357;DHT22;7778;48.792;9.260;2023-04-16T02:40:10;7.90;99.90
15357;DHT22;7778;48.792;9.260;2023-04-16T02:42:56;7.90;99.90
15357;DHT22;7778;48.792;9.260;2023-04-16T02:45:43;7.90;99.90
15357;DHT22;7778;48.792;9.260;2023-04-16T02:48:29;7.80;99.90
15357;DHT22;7778;48.792;9.260;2023-04-16T02:51:14;8.10;99.90
15357;DHT22;7778;48.792;9.260;2023-04-16T02:54:00;7.90;99.90
15357;DHT22;7778;48.792;9.260;2023-04-16T02:56:46;7.90;99.90
15357;DHT22;7778;48.792;9.260;2023-04-16T02:59:31;7.80;99.90
15357;DHT22;7778;48.792;9.260;2023-04-16T03:02:18;8.00;99.90
15357;DHT22;7778;48.792;9.260;2023-04-16T03:05:05;7.90;99.90
15357;DHT22;7778;48.792;9.260;2023-04-16T03:07:51;8.00;99.90
15357;DHT22;7778;48.792;9.260;2023-04-16T03:10:39;7.90;99.90
15357;DHT22;7778;48.792;9.260;2023-04-16T03:13:25;7.80;99.90
15357;DHT22;7778;48.792;9.260;2023-04-16T03:16:10;7.90;99.90
15357;DHT22;7778;48.792;9.260;2023-04-16T03:18:57;8.00;99.90
15357;DHT22;7778;48.792;9.260;2023-04-16T03:21:43;7.80;99.90
15357;DHT22;7778;48.792;9.260;2023-04-16T03:24:28;7.70;99.90
15357;DHT22;7778;48.792;9.260;2023-04-16T03:27:14;7.80;99.90
15357;DHT22;7778;48.792;9.260;2023-04-16T03:29:59;7.70;99.90
15357;DHT22;7778;48.792;9.260;2023-04-16T03:32:45;8.00;99.90
15357;DHT22;7778;48.792;9.260;2023-04-16T03:35:32;7.80;99.90
15357;DHT22;7778;48.792;9.260;2023-04-16T03:38:17;7.90;99.90
15357;DHT22;7778;48.792;9.260;2023-04-16T03:41:03;7.90;99.90
15357;DHT22;7778;48.792;9.260;2023-04-16T03:43:48;7.80;99.90
15357;DHT22;7778;48.792;9.260;2023-04-16T03:46:34;7.80;99.90
15357;DHT22;7778;48.792;9.260;2023-04-16T03:49:19;7.90;99.90
15357;DHT22;7778;48.792;9.260;2023-04-16T03:52:06;7.90;99.90
15357;DHT22;7778;48.792;9.260;2023-04-16T03:54:52;7.80;99.90
15357;DHT22;7778;48.792;9.260;2023-04-16T03:57:37;7.90;99.90
15357;DHT22;7778;48.792;9.260;2023-04-16T04:00:23;7.90;99.90
15357;DHT22;7778;48.792;9.260;2023-04-16T04:03:08;8.00;99.90
15357;DHT22;7778;48.792;9.260;2023-04-16T04:05:54;8.00;99.90
15357;DHT22;7778;48.792;9.260;2023-04-16T04:08:41;8.00;99.90
15357;DHT22;7778;48.792;9.260;2023-04-16T04:11:27;8.00;99.90
15357;DHT22;7778;48.792;9.260;2023-04-16T04:14:13;7.80;99.90
15357;DHT22;7778;48.792;9.260;2023-04-16T04:16:58;7.70;99.90
15357;DHT22;7778;48.792;9.260;2023-04-16T04:19:44;7.80;99.90
15357;DHT22;7778;48.792;9.260;2023-04-16T04:22:29;7.80;99.90
15357;DHT22;7778;48.792;9.260;2023-04-16T04:25:16;7.70;99.90
15357;DHT22;7778;48.792;9.260;2023-04-16T04:28:02;7.60;99.90
15357;DHT22;7778;48.792;9.260;2023-04-16T04:30:48;7.60;99.90
15357;DHT22;7778;48.792;9.260;2023-04-16T04:33:33;7.60;99.90
15357;DHT22;7778;48.792;9.260;2023-04-16T04:36:19;7.60;99.90
15357;DHT22;7778;48.792;9.260;2023-04-16T04:39:05;7.50;99.90
15357;DHT22;7778;48.792;9.260;2023-04-16T04:41:52;7.50;99.90
15357;DHT22;7778;48.792;9.260;2023-04-16T04:44:37;7.60;99.90
15357;DHT22;7778;48.792;9.260;2023-04-16T04:47:23;7.80;99.90
15357;DHT22;7778;48.792;9.260;2023-04-16T04:50:09;7.60;99.90
15357;DHT22;7778;48.792;9.260;2023-04-16T04:52:55;7.60;99.90
15357;DHT22;7778;48.792;9.260;2023-04-16T04:55:40;7.60;99.90
15357;DHT22;7778;48.792;9.260;2023-04-16T04:58:27;7.60;99.90
15357;DHT22;7778;48.792;9.260;2023-04-16T05:01:13;7.50;99.90
15357;DHT22;7778;48.792;9.260;2023-04-16T05:03:58;7.60;99.90
15357;DHT22;7778;48.792;9.260;2023-04-16T05:06:44;7.60;99.90
15357;DHT22;7778;48.792;9.260;2023-04-16T05:09:29;7.60;99.90
15357;DHT22;7778;48.792;9.260;2023-04-16T05:12:15;7.60;99.90
15357;DHT22;7778;48.792;9.260;2023-04-16T05:15:02;7.60;99.90
15357;DHT22;7778;48.792;9.260;2023-04-16T05:17:47;7.70;99.90
15357;DHT22;7778;48.792;9.260;2023-04-16T05:20:33;7.60;99.90
15357;DHT22;7778;48.792;9.260;2023-04-16T05:23:21;7.60;99.90
15357;DHT22;7778;48.792;9.260;2023-04-16T05:26:06;7.60;99.90
15357;DHT22;7778;48.792;9.260;2023-04-16T05:28:52;7.60;99.90
15357;DHT22;7778;48.792;9.260;2023-04-16T05:31:39;7.50;99.90
15357;DHT22;7778;48.792;9.260;2023-04-16T05:34:24;7.60;99.90
15357;DHT22;7778;48.792;9.260;2023-04-16T05:37:10;7.60;99.90
15357;DHT22;7778;48.792;9.260;2023-04-16T05:39:56;7.60;99.90
15357;DHT22;7778;48.792;9.260;2023-04-16T05:42:41;7.60;99.90
15357;DHT22;7778;48.792;9.260;2023-04-16T05:45:27;7.50;99.90
15357;DHT22;7778;48.792;9.260;2023-04-16T05:48:14;7.60;99.90
15357;DHT22;7778;48.792;9.260;2023-04-16T05:50:59;7.70;99.90
15357;DHT22;7778;48.792;9.260;2023-04-16T05:53:46;7.60;99.90
15357;DHT22;7778;48.792;9.260;2023-04-16T05:56:31;7.60;99.90
15357;DHT22;7778;48.792;9.260;2023-04-16T05:59:17;7.60;99.90
15357;DHT22;7778;48.792;9.260;2023-04-16T06:02:02;7.70;99.90
15357;DHT22;7778;48.792;9.260;2023-04-16T06:04:49;7.60;99.90
15357;DHT22;7778;48.792;9.260;2023-04-16T06:07:35;7.60;99.90
15357;DHT22;7778;48.792;9.260;2023-04-16T06:10:21;7.60;99.90
15357;DHT22;7778;48.792;9.260;2023-04-16T06:13:07;7.60;99.90
15357;DHT22;7778;48.792;9.260;2023-04-16T06:15:52;7.70;99.90
15357;DHT22;7778;48.792;9.260;2023-04-16T06:18:38;7.70;99.90
15357;DHT22;7778;48.792;9.260;2023-04-16T06:21:25;7.70;99.90
15357;DHT22;7778;48.792;9.260;2023-04-16T06:24:11;7.60;99.90
15357;DHT22;7778;48.792;9.260;2023-04-16T06:26:56;7.70;99.90
15357;DHT22;7778;48.792;9.260;2023-04-16T06:29:42;7.70;99.90
15357;DHT22;7778;48.792;9.260;2023-04-16T06:32:27;7.60;99.90
15357;DHT22;7778;48.792;9.260;2023-04-16T06:35:13;7.70;99.90
15357;DHT22;7778;48.792;9.260;2023-04-16T06:38:00;7.80;99.90
15357;DHT22;7778;48.792;9.260;2023-04-16T06:40:47;7.80;99.90
15357;DHT22;7778;48.792;9.260;2023-04-16T06:43:36;7.80;99.90
15357;DHT22;7778;48.792;9.260;2023-04-16T06:46:22;7.80;99.90
15357;DHT22;7778;48.792;9.260;2023-04-16T06:49:07;7.80;99.90
15357;DHT22;7778;48.792;9.260;2023-04-16T06:51:53;7.80;99.90
15357;DHT22;7778;48.792;9.260;2023-04-16T06:54:40;7.90;99.90
15357;DHT22;7778;48.792;9.260;2023-04-16T06:57:26;8.00;99.90
15357;DHT22;7778;48.792;9.260;2023-04-16T07:00:12;7.90;99.90
15357;DHT22;7778;48.792;9.260;2023-04-16T07:03:00;7.90;99.90
15357;DHT22;7778;48.792;9.260;2023-04-16T07:05:46;7.90;99.90
15357;DHT22;7778;48.792;9.260;2023-04-16T07:08:31;7.90;99.90
15357;DHT22;7778;48.792;9.260;2023-04-16T07:11:18;8.00;99.90
15357;DHT22;7778;48.792;9.260;2023-04-16T07:14:04;8.20;99.90
15357;DHT22;7778;48.792;9.260;2023-04-16T07:16:49;8.00;99.90
15357;DHT22;7778;48.792;9.260;2023-04-16T07:19:35;8.10;99.90
15357;DHT22;7778;48.792;9.260;2023-04-16T07:22:20;8.20;99.90
15357;DHT22;7778;48.792;9.260;2023-04-16T07:25:07;8.10;99.90
15357;DHT22;7778;48.792;9.260;2023-04-16T07:27:54;8.10;99.90
15357;DHT22;7778;48.792;9.260;2023-04-16T07:30:40;8.10;99.90
15357;DHT22;7778;48.792;9.260;2023-04-16T07:33:25;8.10;99.90
15357;DHT22;7778;48.792;9.260;2023-04-16T07:36:11;8.20;99.90
15357;DHT22;7778;48.792;9.260;2023-04-16T07:38:56;8.30;99.90
15357;DHT22;7778;48.792;9.260;2023-04-16T07:41:42;8.40;99.90
15357;DHT22;7778;48.792;9.260;2023-04-16T07:44:30;8.60;99.90
15357;DHT22;7778;48.792;9.260;2023-04-16T07:47:15;8.40;99.90
15357;DHT22;7778;48.792;9.260;2023-04-16T07:50:01;8.30;99.90
15357;DHT22;7778;48.792;9.260;2023-04-16T07:52:47;8.40;99.90
15357;DHT22;7778;48.792;9.260;2023-04-16T07:55:33;8.30;99.90
15357;DHT22;7778;48.792;9.260;2023-04-16T07:58:18;8.20;99.90
15357;DHT22;7778;48.792;9.260;2023-04-16T08:01:05;8.30;99.90
15357;DHT22;7778;48.792;9.260;2023-04-16T08:03:51;8.20;99.90
15357;DHT22;7778;48.792;9.260;2023-04-16T08:06:36;8.20;99.90
15357;DHT22;7778;48.792;9.260;2023-04-16T08:09:25;8.20;99.90
15357;DHT22;7778;48.792;9.260;2023-04-16T08:12:11;8.20;99.90
15357;DHT22;7778;48.792;9.260;2023-04-16T08:14:57;8.30;99.90
15357;DHT22;7778;48.792;9.260;2023-04-16T08:17:44;8.20;99.90
15357;DHT22;7778;48.792;9.260;2023-04-16T08:20:30;8.30;99.90
15357;DHT22;7778;48.792;9.260;2023-04-16T08:23:17;8.40;99.90
15357;DHT22;7778;48.792;9.260;2023-04-16T08:26:02;8.40;99.90
15357;DHT22;7778;48.792;9.260;2023-04-16T08:28:48;8.30;99.90
15357;DHT22;7778;48.792;9.260;2023-04-16T08:31:34;8.40;99.90
15357;DHT22;7778;48.792;9.260;2023-04-16T08:34:21;8.40;99.90
15357;DHT22;7778;48.792;9.260;2023-04-16T08:37:07;8.50;99.90
15357;DHT22;7778;48.792;9.260;2023-04-16T08:39:53;8.40;99.90
15357;DHT22;7778;48.792;9.260;2023-04-16T08:42:41;8.50;99.90
15357;DHT22;7778;48.792;9.260;2023-04-16T08:45:34;8.60;99.90
15357;DHT22;7778;48.792;9.260;2023-04-16T08:48:20;8.50;99.90
15357;DHT22;7778;48.792;9.260;2023-04-16T08:51:09;8.60;99.90
15357;DHT22;7778;48.792;9.260;2023-04-16T08:54:02;8.60;99.90
15357;DHT22;7778;48.792;9.260;2023-04-16T08:56:50;8.60;99.90
15357;DHT22;7778;48.792;9.260;2023-04-16T08:59:36;8.50;99.90
15357;DHT22;7778;48.792;9.260;2023-04-16T09:02:24;8.50;99.90
15357;DHT22;7778;48.792;9.260;2023-04-16T09:05:13;8.50;99.90
15357;DHT22;7778;48.792;9.260;2023-04-16T09:08:03;8.70;99.90
15357;DHT22;7778;48.792;9.260;2023-04-16T09:10:50;8.70;99.90
15357;DHT22;7778;48.792;9.260;2023-04-16T09:13:36;8.70;99.90
15357;DHT22;7778;48.792;9.260;2023-04-16T09:16:24;8.70;99.90
15357;DHT22;7778;48.792;9.260;2023-04-16T09:19:10;8.70;99.90
15357;DHT22;7778;48.792;9.260;2023-04-16T09:21:56;8.70;99.90
15357;DHT22;7778;48.792;9.260;2023-04-16T09:24:43;8.90;99.90
15357;DHT22;7778;48.792;9.260;2023-04-16T09:27:29;8.70;99.90
15357;DHT22;7778;48.792;9.260;2023-04-16T09:30:20;8.80;99.90
15357;DHT22;7778;48.792;9.260;2023-04-16T09:33:16;8.90;99.90
15357;DHT22;7778;48.792;9.260;2023-04-16T09:36:05;8.90;99.90
15357;DHT22;7778;48.792;9.260;2023-04-16T09:38:52;8.90;99.90
15357;DHT22;7778;48.792;9.260;2023-04-16T09:41:40;8.90;99.90
15357;DHT22;7778;48.792;9.260;2023-04-16T09:44:34;8.90;99.90
15357;DHT22;7778;48.792;9.260;2023-04-16T09:47:21;8.90;99.90
15357;DHT22;7778;48.792;9.260;2023-04-16T09:50:09;9.00;99.90
15357;DHT22;7778;48.792;9.260;2023-04-16T09:53:01;8.80;99.90
15357;DHT22;7778;48.792;9.260;2023-04-16T09:55:47;9.00;99.90
15357;DHT22;7778;48.792;9.260;2023-04-16T09:58:36;8.90;99.90
15357;DHT22;7778;48.792;9.260;2023-04-16T10:01:22;9.00;99.90
15357;DHT22;7778;48.792;9.260;2023-04-16T10:04:08;8.80;99.90
15357;DHT22;7778;48.792;9.260;2023-04-16T10:07:04;8.90;99.90
15357;DHT22;7778;48.792;9.260;2023-04-16T10:09:50;8.80;99.90
15357;DHT22;7778;48.792;9.260;2023-04-16T10:12:37;8.80;99.90
15357;DHT22;7778;48.792;9.260;2023-04-16T10:15:27;8.80;99.90
15357;DHT22;7778;48.792;9.260;2023-04-16T10:18:14;8.80;99.90
15357;DHT22;7778;48.792;9.260;2023-04-16T10:21:01;8.80;99.90
15357;DHT22;7778;48.792;9.260;2023-04-16T10:23:47;8.70;99.90
15357;DHT22;7778;48.792;9.260;2023-04-16T10:26:34;9.10;99.90
15357;DHT22;7778;48.792;9.260;2023-04-16T10:29:21;8.80;99.90
15357;DHT22;7778;48.792;9.260;2023-04-16T10:32:08;8.90;99.90
15357;DHT22;7778;48.792;9.260;2023-04-16T10:34:54;9.10;99.90
15357;DHT22;7778;48.792;9.260;2023-04-16T10:37:40;8.90;99.90
15357;DHT22;7778;48.792;9.260;2023-04-16T10:40:28;9.10;99.90
15357;DHT22;7778;48.792;9.260;2023-04-16T10:43:16;9.00;99.90
15357;DHT22;7778;48.792;9.260;2023-04-16T10:46:19;9.10;99.90
15357;DHT22;7778;48.792;9.260;2023-04-16T10:49:15;9.10;99.90
15357;DHT22;7778;48.792;9.260;2023-04-16T10:52:08;9.10;99.90
15357;DHT22;7778;48.792;9.260;2023-04-16T10:54:58;9.20;99.90
15357;DHT22;7778;48.792;9.260;2023-04-16T10:57:48;9.30;99.90
15357;DHT22;7778;48.792;9.260;2023-04-16T11:00:48;9.20;99.90
15357;DHT22;7778;48.792;9.260;2023-04-16T11:03:34;9.30;99.90
15357;DHT22;7778;48.792;9.260;2023-04-16T11:06:25;9.30;99.90
15357;DHT22;7778;48.792;9.260;2023-04-16T11:09:52;9.30;99.90
15357;DHT22;7778;48.792;9.260;2023-04-16T11:12:40;9.30;99.90
15357;DHT22;7778;48.792;9.260;2023-04-16T11:15:27;9.30;99.90
15357;DHT22;7778;48.792;9.260;2023-04-16T11:18:18;9.40;99.90
15357;DHT22;7778;48.792;9.260;2023-04-16T11:21:07;9.30;99.90
15357;DHT22;7778;48.792;9.260;2023-04-16T11:23:56;9.20;99.90
15357;DHT22;7778;48.792;9.260;2023-04-16T11:26:42;9.20;99.90
15357;DHT22;7778;48.792;9.260;2023-04-16T11:29:27;9.10;99.90
15357;DHT22;7778;48.792;9.260;2023-04-16T11:32:19;9.30;99.90
15357;DHT22;7778;48.792;9.260;2023-04-16T11:35:12;9.10;99.90
15357;DHT22;7778;48.792;9.260;2023-04-16T11:37:59;9.10;99.90
15357;DHT22;7778;48.792;9.260;2023-04-16T11:40:48;9.20;99.90
15357;DHT22;7778;48.792;9.260;2023-04-16T11:43:37;9.20;99.90
15357;DHT22;7778;48.792;9.260;2023-04-16T11:46:22;9.10;99.90
15357;DHT22;7778;48.792;9.260;2023-04-16T11:49:28;9.10;99.90
15357;DHT22;7778;48.792;9.260;2023-04-16T11:52:24;9.30;99.90
15357;DHT22;7778;48.792;9.260;2023-04-16T11:55:11;9.20;99.90
15357;DHT22;7778;48.792;9.260;2023-04-16T11:58:10;9.30;99.90
15357;DHT22;7778;48.792;9.260;2023-04-16T12:00:56;9.30;99.90
15357;DHT22;7778;48.792;9.260;2023-04-16T12:03:45;9.30;99.90
15357;DHT22;7778;48.792;9.260;2023-04-16T12:06:32;9.10;99.90
15357;DHT22;7778;48.792;9.260;2023-04-16T12:09:25;9.00;99.90
15357;DHT22;7778;48.792;9.260;2023-04-16T12:12:27;9.20;99.90
15357;DHT22;7778;48.792;9.260;2023-04-16T12:15:16;9.20;99.90
15357;DHT22;7778;48.792;9.260;2023-04-16T12:18:08;9.30;99.90
15357;DHT22;7778;48.792;9.260;2023-04-16T12:20:53;9.20;99.90
15357;DHT22;7778;48.792;9.260;2023-04-16T12:23:39;9.30;99.90
15357;DHT22;7778;48.792;9.260;2023-04-16T12:26:25;9.30;99.90
15357;DHT22;7778;48.792;9.260;2023-04-16T12:29:18;9.30;99.90
15357;DHT22;7778;48.792;9.260;2023-04-16T12:32:20;9.20;99.90
15357;DHT22;7778;48.792;9.260;2023-04-16T12:35:07;9.30;99.90
15357;DHT22;7778;48.792;9.260;2023-04-16T12:37:53;9.40;99.90
15357;DHT22;7778;48.792;9.260;2023-04-16T12:40:39;9.40;99.90
15357;DHT22;7778;48.792;9.260;2023-04-16T12:43:25;9.50;99.90
15357;DHT22;7778;48.792;9.260;2023-04-16T12:46:11;9.60;99.90
15357;DHT22;7778;48.792;9.260;2023-04-16T12:48:58;9.80;99.90
15357;DHT22;7778;48.792;9.260;2023-04-16T12:51:44;9.50;99.90
15357;DHT22;7778;48.792;9.260;2023-04-16T12:54:31;9.30;99.90
15357;DHT22;7778;48.792;9.260;2023-04-16T12:57:16;9.40;99.90
15357;DHT22;7778;48.792;9.260;2023-04-16T13:00:03;9.30;99.90
15357;DHT22;7778;48.792;9.260;2023-04-16T13:02:51;9.40;99.90
15357;DHT22;7778;48.792;9.260;2023-04-16T13:05:38;9.30;99.90
15357;DHT22;7778;48.792;9.260;2023-04-16T13:08:24;9.40;99.90
15357;DHT22;7778;48.792;9.260;2023-04-16T13:11:09;9.30;99.90
15357;DHT22;7778;48.792;9.260;2023-04-16T13:13:55;9.40;99.90
15357;DHT22;7778;48.792;9.260;2023-04-16T13:16:41;9.30;99.90
15357;DHT22;7778;48.792;9.260;2023-04-16T13:19:26;9.30;99.90
15357;DHT22;7778;48.792;9.260;2023-04-16T13:22:13;9.30;99.90
15357;DHT22;7778;48.792;9.260;2023-04-16T13:24:59;9.30;99.90
15357;DHT22;7778;48.792;9.260;2023-04-16T13:27:45;9.40;99.90
15357;DHT22;7778;48.792;9.260;2023-04-16T13:30:30;9.30;99.90
15357;DHT22;7778;48.792;9.260;2023-04-16T13:33:16;9.30;99.90
15357;DHT22;7778;48.792;9.260;2023-04-16T13:36:02;9.30;99.90
15357;DHT22;7778;48.792;9.260;2023-04-16T13:38:49;9.40;99.90
15357;DHT22;7778;48.792;9.260;2023-04-16T13:41:35;9.40;99.90
15357;DHT22;7778;48.792;9.260;2023-04-16T13:44:20;9.40;99.90
15357;DHT22;7778;48.792;9.260;2023-04-16T13:47:06;9.40;99.90
15357;DHT22;7778;48.792;9.260;2023-04-16T13:49:51;9.30;99.90
15357;DHT22;7778;48.792;9.260;2023-04-16T13:52:37;9.40;99.90
15357;DHT22;7778;48.792;9.260;2023-04-16T13:55:24;9.50;99.90
15357;DHT22;7778;48.792;9.260;2023-04-16T13:58:10;9.50;99.90
15357;DHT22;7778;48.792;9.260;2023-04-16T14:00:55;9.60;99.90
15357;DHT22;7778;48.792;9.260;2023-04-16T14:03:41;9.60;99.90
15357;DHT22;7778;48.792;9.260;2023-04-16T14:06:27;9.70;99.90
15357;DHT22;7778;48.792;9.260;2023-04-16T14:09:12;9.90;99.90
15357;DHT22;7778;48.792;9.260;2023-04-16T14:12:00;9.70;99.90
15357;DHT22;7778;48.792;9.260;2023-04-16T14:14:46;9.50;99.90
15357;DHT22;7778;48.792;9.260;2023-04-16T14:17:32;9.50;99.90
15357;DHT22;7778;48.792;9.260;2023-04-16T14:20:18;9.40;99.90
15357;DHT22;7778;48.792;9.260;2023-04-16T14:23:04;9.40;99.90
15357;DHT22;7778;48.792;9.260;2023-04-16T14:25:49;9.40;99.90
15357;DHT22;7778;48.792;9.260;2023-04-16T14:28:36;9.50;99.90
15357;DHT22;7778;48.792;9.260;2023-04-16T14:31:22;9.40;99.90
15357;DHT22;7778;48.792;9.260;2023-04-16T14:34:08;9.20;99.90
15357;DHT22;7778;48.792;9.260;2023-04-16T14:36:54;9.40;99.90
15357;DHT22;7778;48.792;9.260;2023-04-16T14:39:40;9.30;99.90
15357;DHT22;7778;48.792;9.260;2023-04-16T14:42:26;9.20;99.90
15357;DHT22;7778;48.792;9.260;2023-04-16T14:45:13;9.30;99.90
15357;DHT22;7778;48.792;9.260;2023-04-16T14:47:59;9.30;99.90
15357;DHT22;7778;48.792;9.260;2023-04-16T14:50:45;9.30;99.90
15357;DHT22;7778;48.792;9.260;2023-04-16T14:53:30;9.20;99.90
15357;DHT22;7778;48.792;9.260;2023-04-16T14:56:17;9.20;99.90
15357;DHT22;7778;48.792;9.260;2023-04-16T14:59:03;9.30;99.90
15357;DHT22;7778;48.792;9.260;2023-04-16T15:01:50;9.40;99.90
15357;DHT22;7778;48.792;9.260;2023-04-16T15:04:36;9.40;99.90
15357;DHT22;7778;48.792;9.260;2023-04-16T15:07:23;9.20;99.90
15357;DHT22;7778;48.792;9.260;2023-04-16T15:10:09;9.20;99.90
15357;DHT22;7778;48.792;9.260;2023-04-16T15:12:55;9.20;99.90
15357;DHT22;7778;48.792;9.260;2023-04-16T15:15:41;9.10;99.90
15357;DHT22;7778;48.792;9.260;2023-04-16T15:18:28;9.10;99.90
15357;DHT22;7778;48.792;9.260;2023-04-16T15:21:14;9.10;99.90
15357;DHT22;7778;48.792;9.260;2023-04-16T15:24:00;9.20;99.90
15357;DHT22;7778;48.792;9.260;2023-04-16T15:26:46;9.20;99.90
15357;DHT22;7778;48.792;9.260;2023-04-16T15:29:31;9.20;99.90
15357;DHT22;7778;48.792;9.260;2023-04-16T15:32:17;9.20;99.90
15357;DHT22;7778;48.792;9.260;2023-04-16T15:35:04;9.20;99.90
15357;DHT22;7778;48.792;9.260;2023-04-16T15:37:50;9.30;99.90
15357;DHT22;7778;48.792;9.260;2023-04-16T15:40:36;9.20;99.90
15357;DHT22;7778;48.792;9.260;2023-04-16T15:43:25;9.30;99.90
15357;DHT22;7778;48.792;9.260;2023-04-16T15:46:13;9.20;99.90
15357;DHT22;7778;48.792;9.260;2023-04-16T15:48:59;9.00;99.90
15357;DHT22;7778;48.792;9.260;2023-04-16T15:51:46;9.00;99.90
15357;DHT22;7778;48.792;9.260;2023-04-16T15:54:32;9.00;99.90
15357;DHT22;7778;48.792;9.260;2023-04-16T15:57:17;9.10;99.90
15357;DHT22;7778;48.792;9.260;2023-04-16T16:00:04;9.10;99.90
15357;DHT22;7778;48.792;9.260;2023-04-16T16:02:56;9.00;99.90
15357;DHT22;7778;48.792;9.260;2023-04-16T16:05:42;9.00;99.90
15357;DHT22;7778;48.792;9.260;2023-04-16T16:08:29;9.00;99.90
15357;DHT22;7778;48.792;9.260;2023-04-16T16:11:17;9.00;99.90
15357;DHT22;7778;48.792;9.260;2023-04-16T16:14:02;9.00;99.90
15357;DHT22;7778;48.792;9.260;2023-04-16T16:16:48;9.10;99.90
15357;DHT22;7778;48.792;9.260;2023-04-16T16:19:34;9.10;99.90
15357;DHT22;7778;48.792;9.260;2023-04-16T16:22:20;9.00;99.90
15357;DHT22;7778;48.792;9.260;2023-04-16T16:25:08;9.10;99.90
15357;DHT22;7778;48.792;9.260;2023-04-16T16:27:54;9.20;99.90
15357;DHT22;7778;48.792;9.260;2023-04-16T16:30:40;9.20;99.90
15357;DHT22;7778;48.792;9.260;2023-04-16T16:33:25;9.30;99.90
15357;DHT22;7778;48.792;9.260;2023-04-16T16:36:12;9.10;99.90
15357;DHT22;7778;48.792;9.260;2023-04-16T16:38:57;9.10;99.90
15357;DHT22;7778;48.792;9.260;2023-04-16T16:41:44;9.10;99.90
15357;DHT22;7778;48.792;9.260;2023-04-16T16:44:35;9.10;99.90
15357;DHT22;7778;48.792;9.260;2023-04-16T16:47:21;9.10;99.90
15357;DHT22;7778;48.792;9.260;2023-04-16T16:50:07;9.10;99.90
15357;DHT22;7778;48.792;9.260;2023-04-16T16:52:54;9.10;99.90
15357;DHT22;7778;48.792;9.260;2023-04-16T16:55:42;9.20;99.90
15357;DHT22;7778;48.792;9.260;2023-04-16T16:58:28;9.20;99.90
15357;DHT22;7778;48.792;9.260;2023-04-16T17:01:15;9.20;99.90
15357;DHT22;7778;48.792;9.260;2023-04-16T17:04:01;9.20;99.90
15357;DHT22;7778;48.792;9.260;2023-04-16T17:06:47;9.10;99.90
15357;DHT22;7778;48.792;9.260;2023-04-16T17:09:33;9.10;99.90
15357;DHT22;7778;48.792;9.260;2023-04-16T17:12:21;9.20;99.90
15357;DHT22;7778;48.792;9.260;2023-04-16T17:15:09;9.30;99.90
15357;DHT22;7778;48.792;9.260;2023-04-16T17:17:55;9.20;99.90
15357;DHT22;7778;48.792;9.260;2023-04-16T17:20:41;9.50;99.90
15357;DHT22;7778;48.792;9.260;2023-04-16T17:23:26;9.20;99.90
15357;DHT22;7778;48.792;9.260;2023-04-16T17:26:12;9.20;99.90
15357;DHT22;7778;48.792;9.260;2023-04-16T17:28:58;9.20;99.90
15357;DHT22;7778;48.792;9.260;2023-04-16T17:31:45;9.20;99.90
15357;DHT22;7778;48.792;9.260;2023-04-16T17:34:31;9.10;99.90
15357;DHT22;7778;48.792;9.260;2023-04-16T17:37:16;9.00;99.90
15357;DHT22;7778;48.792;9.260;2023-04-16T17:40:02;9.00;99.90
15357;DHT22;7778;48.792;9.260;2023-04-16T17:42:50;9.00;99.90
15357;DHT22;7778;48.792;9.260;2023-04-16T17:45:36;9.00;99.90
15357;DHT22;7778;48.792;9.260;2023-04-16T17:48:23;9.00;99.90
15357;DHT22;7778;48.792;9.260;2023-04-16T17:51:09;9.00;99.90
15357;DHT22;7778;48.792;9.260;2023-04-16T17:53:55;9.00;99.90
15357;DHT22;7778;48.792;9.260;2023-04-16T17:56:40;9.10;99.90
15357;DHT22;7778;48.792;9.260;2023-04-16T17:59:26;9.00;99.90
15357;DHT22;7778;48.792;9.260;2023-04-16T18:02:11;9.10;99.90
15357;DHT22;7778;48.792;9.260;2023-04-16T18:04:58;9.10;99.90
15357;DHT22;7778;48.792;9.260;2023-04-16T18:07:44;9.00;99.90
15357;DHT22;7778;48.792;9.260;2023-04-16T18:10:31;9.00;99.90